Athol, Massachusetts
Current Conditions -  °F | °C
As of 9:52 PM on Wednesday 26 Nov 2014 (Local Time) from KAFN Reporting Station
Light Snow Light Snow  
Wind Chill: -4°   Ceiling: NA
Heat Index: -1°   Visibility: 0.75mi
Dew Point: -2°   Wind: 7mph
Humidity: 92%   Direction: NA
Pressure: 29.76"   Gusts: NA
Location:  42.59°N, 72.23°W
Report Text: KAFN 270252Z AUTO VRB06KT 3/4SM -SN BR M01/M02 A2976 RMK AO2 SLP094 P0006 60023 T10061017 58008 $
Loading
Personal Weather Stations






























Interactive Weather Map New forecast layout! Learn more

10-Day Weather Forecast

Advertisements
Track Severe Weather on mobile